Time;durP1;ratioP1;P1;durP2;ratioP2;P2;SDS_P1;SDS_P2;PMS_P1;PMS_P2;Temp;Humidity;BMP_temperature;BMP_pressure;BME280_temperature;BME280_humidity;BME280_pressure;Samples;Min_cycle;Max_cycle;Signal;HPM_P1;HPM_P2
2022/07/30 00:02:00;;;;;;;;;;;16.20;99.90;;;;;;4997612;28;19932;-75
2022/07/30 00:04:26;;;;;;;;;;;16.20;99.90;;;;;;4972330;28;19985;-75
2022/07/30 00:06:53;;;;;;;;;;;16.10;99.90;;;;;;4981024;28;19926;-74
2022/07/30 00:09:21;;;;;;;;;;;15.90;99.90;;;;;;4985212;28;19933;-73
2022/07/30 00:11:48;;;;;;;;;;;16.00;99.90;;;;;;4991121;28;19937;-74
2022/07/30 00:14:15;;;;;;;;;;;15.90;99.90;;;;;;4986766;28;19934;-74
2022/07/30 00:16:41;;;;;;;;;;;15.80;99.90;;;;;;4987892;28;19926;-75
2022/07/30 00:19:08;;;;;;;;;;;15.80;99.90;;;;;;4982211;28;19929;-76
2022/07/30 00:21:35;;;;;;;;;;;15.80;99.90;;;;;;4988373;28;19976;-75
2022/07/30 00:24:02;;;;;;;;;;;15.70;99.90;;;;;;4990708;28;19962;-74
2022/07/30 00:26:30;;;;;;;;;;;15.70;99.90;;;;;;4988716;28;19926;-74
2022/07/30 00:28:57;;;;;;;;;;;15.60;99.90;;;;;;4996746;28;19930;-74
2022/07/30 00:31:23;;;;;;;;;;;15.60;99.90;;;;;;4979616;28;20323;-74
2022/07/30 00:33:50;;;;;;;;;;;15.60;99.90;;;;;;4984520;28;20347;-74
2022/07/30 00:36:17;;;;;;;;;;;15.50;99.90;;;;;;4980357;28;20477;-74
2022/07/30 00:38:44;;;;;;;;;;;15.50;99.90;;;;;;4984618;28;20025;-73
2022/07/30 00:41:10;;;;;;;;;;;15.50;99.90;;;;;;4983523;28;19926;-74
2022/07/30 00:43:38;;;;;;;;;;;15.40;99.90;;;;;;4972987;28;20009;-74
2022/07/30 00:46:05;;;;;;;;;;;15.40;99.90;;;;;;4978298;28;20435;-74
2022/07/30 00:48:32;;;;;;;;;;;15.30;99.90;;;;;;4983764;28;19952;-74
2022/07/30 00:50:59;;;;;;;;;;;15.30;99.90;;;;;;4981991;28;20575;-74
2022/07/30 00:53:25;;;;;;;;;;;15.20;99.90;;;;;;5002844;28;19936;-74
2022/07/30 00:55:52;;;;;;;;;;;15.30;99.90;;;;;;4984465;28;19930;-74
2022/07/30 00:58:20;;;;;;;;;;;15.20;99.90;;;;;;4979910;28;20508;-73
2022/07/30 01:00:48;;;;;;;;;;;15.10;99.90;;;;;;4985357;28;19934;-74
2022/07/30 01:03:14;;;;;;;;;;;15.10;99.90;;;;;;4979949;28;19992;-74
2022/07/30 01:05:41;;;;;;;;;;;15.10;99.90;;;;;;4966627;28;19930;-74
2022/07/30 01:08:08;;;;;;;;;;;15.10;99.90;;;;;;4985392;28;19933;-74
2022/07/30 01:10:35;;;;;;;;;;;15.00;99.90;;;;;;4980041;28;20292;-74
2022/07/30 01:13:02;;;;;;;;;;;15.00;99.90;;;;;;4985312;28;19930;-74
2022/07/30 01:15:29;;;;;;;;;;;15.00;99.90;;;;;;4985158;28;19965;-74
2022/07/30 01:17:58;;;;;;;;;;;14.90;99.90;;;;;;4979176;28;20444;-74
2022/07/30 01:20:29;;;;;;;;;;;15.00;99.90;;;;;;4980808;28;19929;-74
2022/07/30 01:23:01;;;;;;;;;;;14.90;99.90;;;;;;4985986;28;19934;-74
2022/07/30 01:25:38;;;;;;;;;;;14.90;99.90;;;;;;4984812;28;19937;-74
2022/07/30 01:28:07;;;;;;;;;;;14.90;99.90;;;;;;4977255;28;19930;-74
2022/07/30 01:30:36;;;;;;;;;;;14.80;99.90;;;;;;4981532;28;20028;-74
2022/07/30 01:33:04;;;;;;;;;;;14.80;99.90;;;;;;4981182;28;19957;-74
2022/07/30 01:35:32;;;;;;;;;;;14.80;99.90;;;;;;4998192;28;19961;-74
2022/07/30 01:37:59;;;;;;;;;;;14.70;99.90;;;;;;4994118;28;19934;-74
2022/07/30 01:40:27;;;;;;;;;;;14.70;99.90;;;;;;4997166;28;19933;-74
2022/07/30 01:42:57;;;;;;;;;;;14.70;99.90;;;;;;4997183;28;19934;-74
2022/07/30 01:45:24;;;;;;;;;;;14.70;99.90;;;;;;4977282;28;19936;-74
2022/07/30 01:47:52;;;;;;;;;;;14.60;99.90;;;;;;4971697;28;19973;-74
2022/07/30 01:50:22;;;;;;;;;;;14.60;99.90;;;;;;4996603;28;20218;-74
2022/07/30 01:52:50;;;;;;;;;;;14.60;99.90;;;;;;4982854;28;19930;-74
2022/07/30 01:55:18;;;;;;;;;;;14.50;99.90;;;;;;4986024;28;20472;-74
2022/07/30 01:57:46;;;;;;;;;;;14.50;99.90;;;;;;4975610;28;19965;-74
2022/07/30 02:00:16;;;;;;;;;;;14.50;99.90;;;;;;4979375;28;19993;-74
2022/07/30 02:02:46;;;;;;;;;;;14.50;99.90;;;;;;4982601;28;19934;-74
2022/07/30 02:05:14;;;;;;;;;;;14.40;99.90;;;;;;4995154;28;19929;-74
2022/07/30 02:07:45;;;;;;;;;;;14.40;99.90;;;;;;4984290;28;19929;-73
2022/07/30 02:10:13;;;;;;;;;;;14.40;99.90;;;;;;4981004;28;19996;-74
2022/07/30 02:12:46;;;;;;;;;;;14.40;99.90;;;;;;5001153;28;19933;-74
2022/07/30 02:15:17;;;;;;;;;;;14.30;99.90;;;;;;4977844;28;20043;-74
2022/07/30 02:17:48;;;;;;;;;;;14.30;99.90;;;;;;4970960;28;19937;-73
2022/07/30 02:20:16;;;;;;;;;;;14.30;99.90;;;;;;4999058;28;19980;-75
2022/07/30 02:22:44;;;;;;;;;;;14.30;99.90;;;;;;4988060;28;19934;-72
2022/07/30 02:25:15;;;;;;;;;;;14.30;99.90;;;;;;4984450;28;19941;-73
2022/07/30 02:27:43;;;;;;;;;;;14.30;99.90;;;;;;4985309;28;19944;-73
2022/07/30 02:30:11;;;;;;;;;;;14.20;99.90;;;;;;4980385;28;19933;-73
2022/07/30 02:32:40;;;;;;;;;;;14.20;99.90;;;;;;4982869;28;20450;-74
2022/07/30 02:35:09;;;;;;;;;;;14.50;99.90;;;;;;4973992;28;20307;-73
2022/07/30 02:37:37;;;;;;;;;;;14.20;99.90;;;;;;4974067;28;19930;-73
2022/07/30 02:40:05;;;;;;;;;;;14.20;99.90;;;;;;4996479;28;19953;-73
2022/07/30 02:42:32;;;;;;;;;;;14.20;99.90;;;;;;4999858;28;19930;-73
2022/07/30 02:45:00;;;;;;;;;;;14.10;99.90;;;;;;4968485;28;19965;-73
2022/07/30 02:47:28;;;;;;;;;;;14.10;99.90;;;;;;4976311;28;19925;-73
2022/07/30 02:50:01;;;;;;;;;;;14.10;99.90;;;;;;4999133;28;19930;-73
2022/07/30 02:52:29;;;;;;;;;;;14.10;99.90;;;;;;4978552;28;20391;-73
2022/07/30 02:54:57;;;;;;;;;;;14.00;99.90;;;;;;4988268;28;19961;-74
2022/07/30 02:57:24;;;;;;;;;;;14.00;99.90;;;;;;4997489;28;19926;-72
2022/07/30 02:59:52;;;;;;;;;;;14.00;99.90;;;;;;4995934;28;20032;-73
2022/07/30 03:02:19;;;;;;;;;;;14.00;99.90;;;;;;4993478;28;19929;-73
2022/07/30 03:04:47;;;;;;;;;;;14.00;99.90;;;;;;4971733;28;20028;-74
2022/07/30 03:07:15;;;;;;;;;;;14.00;99.90;;;;;;4988128;28;19937;-74
2022/07/30 03:09:43;;;;;;;;;;;14.00;99.90;;;;;;4995092;28;19930;-74
2022/07/30 03:12:11;;;;;;;;;;;14.00;99.90;;;;;;4979851;28;20404;-74
2022/07/30 03:14:38;;;;;;;;;;;14.00;99.90;;;;;;4991731;28;19938;-74
2022/07/30 03:17:06;;;;;;;;;;;14.00;99.90;;;;;;4979698;28;20366;-74
2022/07/30 03:19:33;;;;;;;;;;;13.90;99.90;;;;;;4981279;28;19930;-73
2022/07/30 03:22:01;;;;;;;;;;;14.00;99.90;;;;;;4978870;28;19930;-74
2022/07/30 03:24:30;;;;;;;;;;;14.00;99.90;;;;;;4971355;28;20450;-74
2022/07/30 03:26:59;;;;;;;;;;;13.90;99.90;;;;;;4986208;28;19937;-73
2022/07/30 03:29:26;;;;;;;;;;;13.90;99.90;;;;;;4980572;28;20628;-73
2022/07/30 03:31:53;;;;;;;;;;;13.90;99.90;;;;;;4983626;28;19973;-73
2022/07/30 03:34:20;;;;;;;;;;;13.90;99.90;;;;;;5000249;28;19937;-73
2022/07/30 03:36:47;;;;;;;;;;;13.90;99.90;;;;;;4988971;28;19930;-74
2022/07/30 03:39:14;;;;;;;;;;;13.90;99.90;;;;;;4999540;28;19930;-74
2022/07/30 03:41:42;;;;;;;;;;;13.90;99.90;;;;;;4984063;28;20938;-74
2022/07/30 03:44:13;;;;;;;;;;;13.90;99.90;;;;;;4977505;28;19937;-73
2022/07/30 03:46:41;;;;;;;;;;;13.90;99.90;;;;;;4983813;28;19980;-74
2022/07/30 03:49:09;;;;;;;;;;;13.90;99.90;;;;;;4980707;28;19930;-74
2022/07/30 03:51:36;;;;;;;;;;;13.90;99.90;;;;;;4987209;28;19930;-74
2022/07/30 03:54:05;;;;;;;;;;;13.90;99.90;;;;;;4984686;28;20281;-74
2022/07/30 03:56:40;;;;;;;;;;;13.90;99.90;;;;;;4985418;28;19937;-74
2022/07/30 03:59:12;;;;;;;;;;;13.90;99.90;;;;;;4983058;28;19930;-74
2022/07/30 04:01:40;;;;;;;;;;;13.80;99.90;;;;;;4985398;28;20000;-74
2022/07/30 04:04:15;;;;;;;;;;;13.80;99.90;;;;;;4984303;28;19930;-74
2022/07/30 04:06:41;;;;;;;;;;;13.80;99.90;;;;;;4988107;28;19960;-75
2022/07/30 04:09:09;;;;;;;;;;;13.80;99.90;;;;;;4981206;28;19937;-74
2022/07/30 04:11:37;;;;;;;;;;;13.80;99.90;;;;;;5002397;28;20716;-75
2022/07/30 04:14:05;;;;;;;;;;;13.80;99.90;;;;;;4991335;28;19934;-74
2022/07/30 04:16:37;;;;;;;;;;;13.90;99.90;;;;;;4976664;28;20002;-74
2022/07/30 04:19:08;;;;;;;;;;;13.80;99.90;;;;;;4986356;28;19942;-74
2022/07/30 04:21:37;;;;;;;;;;;13.90;99.90;;;;;;4973998;28;20579;-74
2022/07/30 04:24:05;;;;;;;;;;;13.90;99.90;;;;;;5000618;28;19933;-73
2022/07/30 04:26:34;;;;;;;;;;;14.00;99.90;;;;;;4985242;28;19945;-73
2022/07/30 04:29:01;;;;;;;;;;;14.10;99.90;;;;;;4984325;28;20388;-73
2022/07/30 04:31:34;;;;;;;;;;;14.20;99.90;;;;;;4992535;28;19930;-74
2022/07/30 04:34:07;;;;;;;;;;;14.30;99.90;;;;;;4987524;28;19934;-73
2022/07/30 04:36:39;;;;;;;;;;;14.40;99.90;;;;;;4969525;28;20008;-74
2022/07/30 04:39:06;;;;;;;;;;;14.50;99.90;;;;;;4978755;28;20040;-76
2022/07/30 04:41:33;;;;;;;;;;;14.60;99.90;;;;;;4979419;28;19926;-73
2022/07/30 04:44:25;;;;;;;;;;;14.80;99.90;;;;;;4985168;28;19956;-74
2022/07/30 04:47:11;;;;;;;;;;;14.90;99.90;;;;;;4982786;28;19932;-76
2022/07/30 04:49:50;;;;;;;;;;;15.10;99.90;;;;;;4976968;28;20426;-78
2022/07/30 04:52:17;;;;;;;;;;;15.40;99.90;;;;;;4974937;28;19926;-76
2022/07/30 04:54:48;;;;;;;;;;;15.50;99.90;;;;;;5002086;28;19934;-73
2022/07/30 04:57:16;;;;;;;;;;;15.70;99.90;;;;;;4978864;28;19981;-74
2022/07/30 04:59:43;;;;;;;;;;;15.90;99.90;;;;;;4984216;28;19938;-74
2022/07/30 05:02:11;;;;;;;;;;;16.00;99.90;;;;;;4977607;28;20033;-77
2022/07/30 05:04:38;;;;;;;;;;;16.10;99.90;;;;;;4986502;28;20400;-76
2022/07/30 05:07:07;;;;;;;;;;;16.30;99.90;;;;;;5002950;28;19926;-79
2022/07/30 05:09:34;;;;;;;;;;;16.40;99.90;;;;;;4992458;28;19953;-76
2022/07/30 05:12:01;;;;;;;;;;;16.40;99.90;;;;;;4979045;28;19926;-77
2022/07/30 05:14:29;;;;;;;;;;;16.50;99.90;;;;;;4970931;28;19930;-82
2022/07/30 05:16:56;;;;;;;;;;;16.60;99.90;;;;;;4983865;28;20574;-76
2022/07/30 05:19:24;;;;;;;;;;;16.60;99.90;;;;;;4975794;28;19929;-77
2022/07/30 05:21:51;;;;;;;;;;;16.70;99.90;;;;;;5002113;28;19930;-76
2022/07/30 05:24:19;;;;;;;;;;;16.70;99.90;;;;;;4988350;28;19961;-78
2022/07/30 05:26:54;;;;;;;;;;;16.80;99.90;;;;;;4982594;28;19987;-76
2022/07/30 05:29:21;;;;;;;;;;;16.90;99.90;;;;;;4983128;28;19957;-77
2022/07/30 05:31:52;;;;;;;;;;;17.00;99.90;;;;;;4998610;28;20001;-76
2022/07/30 05:34:19;;;;;;;;;;;17.10;99.90;;;;;;4998415;28;20013;-77
2022/07/30 05:36:47;;;;;;;;;;;17.30;99.90;;;;;;4981729;28;19930;-76
2022/07/30 05:39:18;;;;;;;;;;;17.40;99.90;;;;;;4983740;28;19930;-77
2022/07/30 05:42:05;;;;;;;;;;;17.40;99.90;;;;;;4972448;28;19933;-76
2022/07/30 05:44:35;;;;;;;;;;;17.50;99.90;;;;;;4983766;28;19941;-74
2022/07/30 05:47:02;;;;;;;;;;;17.60;99.90;;;;;;4987593;28;20032;-73
2022/07/30 05:49:29;;;;;;;;;;;17.60;99.90;;;;;;5001009;28;19933;-73
2022/07/30 05:52:05;;;;;;;;;;;17.60;99.90;;;;;;4993570;28;19937;-74
2022/07/30 05:54:32;;;;;;;;;;;17.60;99.90;;;;;;4979755;28;20000;-73
2022/07/30 05:57:19;;;;;;;;;;;17.60;99.90;;;;;;4977475;28;19953;-73
2022/07/30 05:59:46;;;;;;;;;;;17.70;99.90;;;;;;5000829;28;20062;-74
2022/07/30 06:02:19;;;;;;;;;;;17.70;99.90;;;;;;4993483;28;19929;-74
2022/07/30 06:04:52;;;;;;;;;;;17.70;99.90;;;;;;4980075;28;19938;-73
2022/07/30 06:07:22;;;;;;;;;;;17.70;99.90;;;;;;5002250;28;20028;-76
2022/07/30 06:09:50;;;;;;;;;;;17.70;99.90;;;;;;5003174;28;19929;-76
2022/07/30 06:12:17;;;;;;;;;;;17.80;99.90;;;;;;4985832;28;19930;-75
2022/07/30 06:14:45;;;;;;;;;;;17.70;99.90;;;;;;4979250;28;20565;-76
2022/07/30 06:17:16;;;;;;;;;;;17.80;99.90;;;;;;5006070;28;19934;-77
2022/07/30 06:19:59;;;;;;;;;;;17.80;99.90;;;;;;4999806;28;20111;-77
2022/07/30 06:22:26;;;;;;;;;;;17.80;99.90;;;;;;4997586;28;19970;-76
2022/07/30 06:24:55;;;;;;;;;;;17.90;99.90;;;;;;4983894;28;19961;-75
2022/07/30 06:27:26;;;;;;;;;;;18.00;99.90;;;;;;4981739;28;20612;-75
2022/07/30 06:29:55;;;;;;;;;;;18.00;99.90;;;;;;4995974;28;19993;-75
2022/07/30 06:32:22;;;;;;;;;;;18.10;99.90;;;;;;5000412;28;19936;-79
2022/07/30 06:34:48;;;;;;;;;;;18.10;99.90;;;;;;4967155;28;20021;-76
2022/07/30 06:37:16;;;;;;;;;;;18.10;99.90;;;;;;4988122;28;20067;-76
2022/07/30 06:39:44;;;;;;;;;;;18.10;99.90;;;;;;5000983;28;19934;-76
2022/07/30 06:42:20;;;;;;;;;;;18.20;99.90;;;;;;4987386;28;19930;-76
2022/07/30 06:45:16;;;;;;;;;;;18.20;99.90;;;;;;4987976;28;19973;-76
2022/07/30 06:48:02;;;;;;;;;;;18.30;99.90;;;;;;4976210;28;19936;-76
2022/07/30 06:50:31;;;;;;;;;;;18.30;99.90;;;;;;4984086;28;19930;-76
2022/07/30 06:52:58;;;;;;;;;;;18.40;99.90;;;;;;4994862;28;19937;-76
2022/07/30 06:55:31;;;;;;;;;;;18.40;99.90;;;;;;4977451;28;20579;-76
2022/07/30 06:58:01;;;;;;;;;;;18.60;99.90;;;;;;4977753;28;19984;-78
2022/07/30 07:01:03;;;;;;;;;;;18.80;99.90;;;;;;4984815;28;19930;-76
2022/07/30 07:03:31;;;;;;;;;;;19.10;99.90;;;;;;4994297;28;20020;-76
2022/07/30 07:05:57;;;;;;;;;;;19.30;99.90;;;;;;4991854;28;19937;-76
2022/07/30 07:08:25;;;;;;;;;;;19.50;99.90;;;;;;5004741;28;19968;-76
2022/07/30 07:10:54;;;;;;;;;;;19.70;99.90;;;;;;5003546;28;20415;-77
2022/07/30 07:13:28;;;;;;;;;;;20.00;99.90;;;;;;4985904;28;20391;-76
2022/07/30 07:15:56;;;;;;;;;;;20.30;99.90;;;;;;5002020;28;19953;-78
2022/07/30 07:18:26;;;;;;;;;;;20.50;99.90;;;;;;4988643;28;19950;-76
2022/07/30 07:20:58;;;;;;;;;;;20.80;99.90;;;;;;5005706;28;19937;-77
2022/07/30 07:23:25;;;;;;;;;;;22.30;99.90;;;;;;4996315;28;20005;-76
2022/07/30 07:25:55;;;;;;;;;;;24.00;99.90;;;;;;5004826;28;19934;-76
2022/07/30 07:28:22;;;;;;;;;;;25.70;99.90;;;;;;4990200;28;19930;-80
2022/07/30 07:30:48;;;;;;;;;;;27.20;99.90;;;;;;5003785;28;19930;-77
2022/07/30 07:33:16;;;;;;;;;;;28.50;99.90;;;;;;4993773;28;19930;-76
2022/07/30 07:35:46;;;;;;;;;;;29.70;99.90;;;;;;4981841;28;19983;-76
2022/07/30 07:38:13;;;;;;;;;;;30.70;99.90;;;;;;4980385;28;20284;-77
2022/07/30 07:40:40;;;;;;;;;;;31.70;99.90;;;;;;4996585;28;19925;-77
2022/07/30 07:43:06;;;;;;;;;;;32.50;99.90;;;;;;4977941;28;19930;-76
2022/07/30 07:45:34;;;;;;;;;;;33.20;99.90;;;;;;5004016;28;20654;-77
2022/07/30 07:48:05;;;;;;;;;;;33.70;99.90;;;;;;4998474;28;19952;-76
2022/07/30 07:50:45;;;;;;;;;;;33.80;99.90;;;;;;4987240;28;19936;-76
2022/07/30 07:53:21;;;;;;;;;;;33.90;99.90;;;;;;4993028;28;19929;-76
2022/07/30 07:55:47;;;;;;;;;;;34.10;99.90;;;;;;4988043;28;19925;-76
2022/07/30 07:58:15;;;;;;;;;;;34.30;99.90;;;;;;4988444;28;19933;-78
2022/07/30 08:00:42;;;;;;;;;;;34.60;99.90;;;;;;4984255;28;19976;-76
2022/07/30 08:03:08;;;;;;;;;;;34.80;99.90;;;;;;5002326;28;19965;-78
2022/07/30 08:05:36;;;;;;;;;;;34.70;99.90;;;;;;4991148;28;19937;-77
2022/07/30 08:08:39;;;;;;;;;;;34.60;99.90;;;;;;4980599;28;20012;-77
2022/07/30 08:11:25;;;;;;;;;;;34.40;99.90;;;;;;4982728;28;19934;-78
2022/07/30 08:14:24;;;;;;;;;;;34.40;99.10;;;;;;4983011;28;19981;-77
2022/07/30 08:17:13;;;;;;;;;;;34.30;97.80;;;;;;4972654;28;20393;-78
2022/07/30 08:20:07;;;;;;;;;;;34.40;98.70;;;;;;4984369;28;20008;-77
2022/07/30 08:22:34;;;;;;;;;;;34.60;98.20;;;;;;5000075;28;19930;-76
2022/07/30 08:25:03;;;;;;;;;;;34.60;96.30;;;;;;4987722;28;20012;-77
2022/07/30 08:27:30;;;;;;;;;;;34.40;95.10;;;;;;4980660;28;19926;-76
2022/07/30 08:29:56;;;;;;;;;;;34.20;94.10;;;;;;5000388;28;19936;-76
2022/07/30 08:32:23;;;;;;;;;;;33.90;95.40;;;;;;4978431;28;20480;-76
2022/07/30 08:34:51;;;;;;;;;;;33.80;94.10;;;;;;4997875;28;19929;-78
2022/07/30 08:37:18;;;;;;;;;;;33.80;93.40;;;;;;5004743;28;20013;-76
2022/07/30 08:39:46;;;;;;;;;;;33.50;93.00;;;;;;4988884;28;20519;-77
2022/07/30 08:42:15;;;;;;;;;;;33.40;94.50;;;;;;4994575;28;19926;-77
2022/07/30 08:44:44;;;;;;;;;;;33.40;93.40;;;;;;4987568;28;19930;-78
2022/07/30 08:47:11;;;;;;;;;;;33.30;91.80;;;;;;4989379;28;19926;-77
2022/07/30 08:50:00;;;;;;;;;;;32.90;92.00;;;;;;4994675;28;20026;-76
2022/07/30 08:52:29;;;;;;;;;;;32.50;92.90;;;;;;5006303;28;20004;-77
2022/07/30 08:55:00;;;;;;;;;;;32.40;92.60;;;;;;4997366;28;20043;-78
2022/07/30 08:57:30;;;;;;;;;;;32.20;92.40;;;;;;4994527;28;19937;-77
2022/07/30 08:59:57;;;;;;;;;;;32.10;93.40;;;;;;5004668;28;19930;-77
2022/07/30 09:02:27;;;;;;;;;;;31.90;93.50;;;;;;5005650;28;19929;-77
2022/07/30 09:05:00;;;;;;;;;;;31.60;92.90;;;;;;4978287;28;20016;-78
2022/07/30 09:07:27;;;;;;;;;;;31.50;94.00;;;;;;4997346;28;19929;-79
2022/07/30 09:09:55;;;;;;;;;;;31.60;93.40;;;;;;5005196;28;20399;-79
2022/07/30 09:12:34;;;;;;;;;;;31.60;93.10;;;;;;5006429;28;20021;-79
2022/07/30 09:15:05;;;;;;;;;;;31.40;93.00;;;;;;4979899;28;19937;-78
2022/07/30 09:17:45;;;;;;;;;;;31.40;93.00;;;;;;4988629;28;20712;-80
2022/07/30 09:20:11;;;;;;;;;;;31.10;93.00;;;;;;4984270;28;19926;-77
2022/07/30 09:22:42;;;;;;;;;;;30.60;92.60;;;;;;4991808;28;19938;-77
2022/07/30 09:25:35;;;;;;;;;;;30.30;93.30;;;;;;4974503;28;19940;-81
2022/07/30 09:28:39;;;;;;;;;;;30.20;93.60;;;;;;4931273;28;19938;-79
2022/07/30 09:31:15;;;;;;;;;;;30.50;94.00;;;;;;4976096;28;19933;-78
2022/07/30 09:34:00;;;;;;;;;;;32.00;94.30;;;;;;4980775;28;19953;-78
2022/07/30 09:36:46;;;;;;;;;;;31.00;92.90;;;;;;4984107;28;20446;-76
2022/07/30 09:39:27;;;;;;;;;;;31.10;92.30;;;;;;4989169;28;19961;-79
2022/07/30 09:42:17;;;;;;;;;;;31.20;92.80;;;;;;4981212;28;20419;-77
2022/07/30 09:44:46;;;;;;;;;;;31.30;91.60;;;;;;4977225;28;19945;-78
2022/07/30 09:47:29;;;;;;;;;;;31.40;91.80;;;;;;4980778;28;19934;-78
2022/07/30 09:50:01;;;;;;;;;;;31.40;91.30;;;;;;4977649;28;20418;-79
2022/07/30 09:52:29;;;;;;;;;;;31.40;90.20;;;;;;4986041;28;20375;-78
2022/07/30 09:54:56;;;;;;;;;;;31.10;89.00;;;;;;5004108;28;19933;-78
2022/07/30 09:57:26;;;;;;;;;;;30.90;90.50;;;;;;5000722;28;20038;-77
2022/07/30 09:59:57;;;;;;;;;;;30.60;90.20;;;;;;4978112;28;19936;-77
2022/07/30 10:02:30;;;;;;;;;;;30.30;89.00;;;;;;4995333;28;19960;-77
2022/07/30 10:05:17;;;;;;;;;;;29.70;89.60;;;;;;4990850;28;19981;-77
2022/07/30 10:07:49;;;;;;;;;;;28.90;88.50;;;;;;4991987;28;20025;-78
2022/07/30 10:10:16;;;;;;;;;;;28.20;87.40;;;;;;5015522;28;19929;-80
2022/07/30 10:12:44;;;;;;;;;;;27.40;88.60;;;;;;4999082;28;19933;-79
2022/07/30 10:15:13;;;;;;;;;;;26.80;90.30;;;;;;4996799;28;19984;-77
2022/07/30 10:17:40;;;;;;;;;;;26.30;90.70;;;;;;4983364;28;19937;-77
2022/07/30 10:20:24;;;;;;;;;;;25.90;90.80;;;;;;5001921;28;19938;-78
2022/07/30 10:23:10;;;;;;;;;;;25.60;91.30;;;;;;4980918;28;19941;-78
2022/07/30 10:25:55;;;;;;;;;;;25.40;91.70;;;;;;4986281;28;20482;-77
2022/07/30 10:28:42;;;;;;;;;;;25.20;91.40;;;;;;4985177;28;19981;-77
2022/07/30 10:31:11;;;;;;;;;;;25.10;91.50;;;;;;4981213;28;19977;-77
2022/07/30 10:33:38;;;;;;;;;;;24.90;91.90;;;;;;4977559;28;19930;-78
2022/07/30 10:36:05;;;;;;;;;;;24.80;92.20;;;;;;4979470;28;19972;-80
2022/07/30 10:38:33;;;;;;;;;;;24.70;92.40;;;;;;4977310;28;19941;-78
2022/07/30 10:41:03;;;;;;;;;;;24.50;92.30;;;;;;4983330;28;19933;-77
2022/07/30 10:43:45;;;;;;;;;;;24.50;92.70;;;;;;4970804;28;19934;-77
2022/07/30 10:46:17;;;;;;;;;;;24.60;92.60;;;;;;4972478;28;19937;-77
2022/07/30 10:48:43;;;;;;;;;;;24.60;92.80;;;;;;4985238;28;19937;-77
2022/07/30 10:51:11;;;;;;;;;;;24.60;92.60;;;;;;4975798;28;19930;-76
2022/07/30 10:53:38;;;;;;;;;;;24.70;93.20;;;;;;4974840;28;20013;-79
2022/07/30 10:56:12;;;;;;;;;;;24.80;93.50;;;;;;4978960;28;20012;-78
2022/07/30 10:58:54;;;;;;;;;;;24.90;93.50;;;;;;4980288;28;19961;-77
2022/07/30 11:01:22;;;;;;;;;;;24.90;93.50;;;;;;4979937;28;19934;-77
2022/07/30 11:04:04;;;;;;;;;;;25.00;93.20;;;;;;4984054;28;20041;-79
2022/07/30 11:06:30;;;;;;;;;;;25.10;93.30;;;;;;4977791;28;19940;-78
2022/07/30 11:08:57;;;;;;;;;;;25.20;93.60;;;;;;4983414;28;20380;-77
2022/07/30 11:11:45;;;;;;;;;;;25.30;94.00;;;;;;4982222;28;19929;-79
2022/07/30 11:14:12;;;;;;;;;;;25.70;93.80;;;;;;4981807;28;19926;-77
2022/07/30 11:16:57;;;;;;;;;;;25.50;93.70;;;;;;4979972;28;20021;-77
2022/07/30 11:19:39;;;;;;;;;;;25.70;93.50;;;;;;4989405;28;19936;-79
2022/07/30 11:25:43;;;;;;;;;;;25.80;93.10;;;;;;4986256;28;20874;-78
2022/07/30 11:28:25;;;;;;;;;;;26.00;91.90;;;;;;4979262;28;20052;-77
2022/07/30 11:30:52;;;;;;;;;;;26.00;91.70;;;;;;4975673;28;19926;-78
2022/07/30 11:33:23;;;;;;;;;;;26.00;91.70;;;;;;4986356;28;19937;-78
2022/07/30 11:36:05;;;;;;;;;;;26.00;92.10;;;;;;4972317;28;20447;-77
2022/07/30 11:38:46;;;;;;;;;;;26.00;91.70;;;;;;4977398;28;19925;-77
2022/07/30 11:41:14;;;;;;;;;;;26.10;92.00;;;;;;4974723;28;19956;-79
2022/07/30 11:43:41;;;;;;;;;;;26.20;92.10;;;;;;4978556;28;20013;-77
2022/07/30 11:46:08;;;;;;;;;;;26.20;90.70;;;;;;4979321;28;19981;-77
2022/07/30 11:48:36;;;;;;;;;;;26.30;89.40;;;;;;4988532;28;19930;-77
2022/07/30 11:51:04;;;;;;;;;;;26.30;89.20;;;;;;4981872;28;19990;-79
2022/07/30 11:53:35;;;;;;;;;;;26.30;90.70;;;;;;5000781;28;19937;-78
2022/07/30 11:56:03;;;;;;;;;;;26.40;91.40;;;;;;4976422;28;20333;-79
2022/07/30 11:58:31;;;;;;;;;;;26.40;90.60;;;;;;4980446;28;20012;-78
2022/07/30 12:00:59;;;;;;;;;;;26.40;90.80;;;;;;4989012;28;19972;-77
2022/07/30 12:03:26;;;;;;;;;;;26.40;91.40;;;;;;4984544;28;19985;-77
2022/07/30 12:05:53;;;;;;;;;;;26.50;91.30;;;;;;4986585;28;19934;-77
2022/07/30 12:08:20;;;;;;;;;;;26.60;90.40;;;;;;4985348;28;19937;-77
2022/07/30 12:10:58;;;;;;;;;;;26.60;90.60;;;;;;4986652;28;19993;-78
2022/07/30 12:13:25;;;;;;;;;;;26.70;90.00;;;;;;4988344;28;19959;-78
2022/07/30 12:15:53;;;;;;;;;;;26.70;88.60;;;;;;4980860;28;20024;-77
2022/07/30 12:18:23;;;;;;;;;;;26.70;89.10;;;;;;4978457;28;19941;-78
2022/07/30 12:20:53;;;;;;;;;;;26.80;87.50;;;;;;4986204;28;19929;-80
2022/07/30 12:23:20;;;;;;;;;;;26.80;88.00;;;;;;4983950;28;19929;-78
2022/07/30 12:25:47;;;;;;;;;;;27.00;88.00;;;;;;4986711;28;19965;-77
2022/07/30 12:28:19;;;;;;;;;;;27.20;88.90;;;;;;4978805;28;19930;-78
2022/07/30 12:30:46;;;;;;;;;;;27.50;89.20;;;;;;4979985;28;19930;-80
2022/07/30 12:33:14;;;;;;;;;;;27.80;85.90;;;;;;4988533;28;19948;-78
2022/07/30 12:35:45;;;;;;;;;;;27.90;86.10;;;;;;4986127;28;19925;-79
2022/07/30 12:38:11;;;;;;;;;;;28.10;86.10;;;;;;4983056;28;19938;-80
2022/07/30 12:40:55;;;;;;;;;;;28.30;83.70;;;;;;4983136;28;19937;-78
2022/07/30 12:43:40;;;;;;;;;;;28.40;83.30;;;;;;4982248;28;20033;-78
2022/07/30 12:46:07;;;;;;;;;;;28.50;84.40;;;;;;4985623;28;19937;-79
2022/07/30 12:48:35;;;;;;;;;;;28.50;83.60;;;;;;4984106;28;19930;-78
2022/07/30 12:51:06;;;;;;;;;;;28.70;84.80;;;;;;4981326;28;19930;-78
2022/07/30 12:53:33;;;;;;;;;;;28.90;85.40;;;;;;4980976;28;19930;-78
2022/07/30 12:56:10;;;;;;;;;;;28.90;83.60;;;;;;4987562;28;20272;-79
2022/07/30 12:58:37;;;;;;;;;;;28.80;83.50;;;;;;4983673;28;19972;-77
2022/07/30 13:01:06;;;;;;;;;;;28.70;84.20;;;;;;4984987;28;20016;-77
2022/07/30 13:03:38;;;;;;;;;;;28.70;84.10;;;;;;4982450;28;19948;-77
2022/07/30 13:06:13;;;;;;;;;;;28.60;84.60;;;;;;4987608;28;20325;-78
2022/07/30 13:08:54;;;;;;;;;;;28.70;84.20;;;;;;4972701;28;20027;-77
2022/07/30 13:11:22;;;;;;;;;;;28.70;84.20;;;;;;4964017;28;20639;-79
2022/07/30 13:13:50;;;;;;;;;;;28.70;83.80;;;;;;4983315;28;19980;-77
2022/07/30 13:16:17;;;;;;;;;;;28.70;85.10;;;;;;4987738;28;19930;-78
2022/07/30 13:18:44;;;;;;;;;;;28.80;84.80;;;;;;4984129;28;19926;-76
2022/07/30 13:21:12;;;;;;;;;;;28.90;85.50;;;;;;4986933;28;19976;-79
2022/07/30 13:23:39;;;;;;;;;;;29.00;84.40;;;;;;4984844;28;19940;-78
2022/07/30 13:26:07;;;;;;;;;;;29.00;83.80;;;;;;4977156;28;20352;-76
2022/07/30 13:28:34;;;;;;;;;;;29.00;84.20;;;;;;4987747;28;19941;-76
2022/07/30 13:31:01;;;;;;;;;;;29.00;84.10;;;;;;5011246;28;19932;-79
2022/07/30 13:33:28;;;;;;;;;;;28.90;83.60;;;;;;4997999;28;20012;-77
2022/07/30 13:35:55;;;;;;;;;;;28.90;82.10;;;;;;4978207;28;19930;-77
2022/07/30 13:38:23;;;;;;;;;;;28.70;82.60;;;;;;4970035;28;19976;-78
2022/07/30 13:40:50;;;;;;;;;;;28.60;84.00;;;;;;4980937;28;20251;-76
2022/07/30 13:43:17;;;;;;;;;;;28.50;84.70;;;;;;4980325;28;19930;-79
2022/07/30 13:45:45;;;;;;;;;;;28.40;84.90;;;;;;4979011;28;19941;-78
2022/07/30 13:48:13;;;;;;;;;;;28.20;83.40;;;;;;4978947;28;20345;-78
2022/07/30 13:50:39;;;;;;;;;;;27.90;84.00;;;;;;4972315;28;20482;-77
2022/07/30 13:53:07;;;;;;;;;;;27.70;85.40;;;;;;4982903;28;19925;-76
2022/07/30 13:55:35;;;;;;;;;;;27.80;86.00;;;;;;4985333;28;20071;-77
2022/07/30 13:58:03;;;;;;;;;;;27.90;86.50;;;;;;4988978;28;20510;-77
2022/07/30 14:00:32;;;;;;;;;;;28.00;85.10;;;;;;4989471;28;19956;-79
2022/07/30 14:03:00;;;;;;;;;;;28.00;85.40;;;;;;4986881;28;19929;-76
2022/07/30 14:05:26;;;;;;;;;;;28.20;85.60;;;;;;4984681;28;19926;-77
2022/07/30 14:07:53;;;;;;;;;;;28.30;84.50;;;;;;4980781;28;19929;-78
2022/07/30 14:10:21;;;;;;;;;;;28.40;83.70;;;;;;4986594;28;20388;-77
2022/07/30 14:12:50;;;;;;;;;;;28.50;84.50;;;;;;4978468;28;20816;-79
2022/07/30 14:15:16;;;;;;;;;;;28.60;82.90;;;;;;4986952;28;20391;-77
2022/07/30 14:17:43;;;;;;;;;;;28.60;82.70;;;;;;4987431;28;19934;-78
2022/07/30 14:20:10;;;;;;;;;;;28.60;82.80;;;;;;4984787;28;19933;-77
2022/07/30 14:22:37;;;;;;;;;;;28.70;82.80;;;;;;4996542;28;19965;-77
2022/07/30 14:25:04;;;;;;;;;;;28.80;82.50;;;;;;4992240;28;20008;-78
2022/07/30 14:27:30;;;;;;;;;;;28.90;82.80;;;;;;4984510;28;19933;-77
2022/07/30 14:29:58;;;;;;;;;;;28.90;80.80;;;;;;4986195;28;19930;-77
2022/07/30 14:32:25;;;;;;;;;;;28.80;81.10;;;;;;4977212;28;19930;-79
2022/07/30 14:34:52;;;;;;;;;;;28.70;82.00;;;;;;4988147;28;19933;-78
2022/07/30 14:37:19;;;;;;;;;;;28.70;81.80;;;;;;4986873;28;19964;-79
2022/07/30 14:39:46;;;;;;;;;;;28.70;80.70;;;;;;4972320;28;20648;-81